New York, New York
Traffic Map
Current Weather Conditions
New York, New York
Clear
Clear

Feels Like: 9°
Wind Chill: Ceiling: Unl
Heat Index: Visibility: 10mi
Dew Point: -1° Wind: 3mph
Humidity: 48% Direction: 250° (WSW)
Pressure: 30.43in Gusts: 0mph
Raw Report DataKNYC 280251Z AUTO 25003KT 10SM CLR 09/M01 A3043 RMK AO2 SLP295 T00941011 53005 $
Traffic Incident Summary
Active as of:
Severity:
Category:
InformationThere was an issue retrieving the traffic information for this location. Please try a different location or try again shortly.
Advertisements
Track Severe Weather on mobile